createdAt,value
2018-11-10T00:00:02.884Z,11.6
2018-11-10T00:00:22.424Z,12.1
2018-11-10T00:00:42.047Z,9.8
2018-11-10T00:01:01.511Z,9.8
2018-11-10T00:01:21.178Z,10.5
2018-11-10T00:01:41.043Z,12.5
2018-11-10T00:02:01.033Z,11.5
2018-11-10T00:02:21.029Z,11.7
2018-11-10T00:02:40.821Z,10.9
2018-11-10T00:03:00.547Z,10.7
2018-11-10T00:03:20.074Z,15.3
2018-11-10T00:03:39.641Z,12.2
2018-11-10T00:03:59.354Z,11.5
2018-11-10T00:04:19.211Z,11.3
2018-11-10T00:04:38.855Z,11.5
2018-11-10T00:04:58.539Z,10.7
2018-11-10T00:05:18.288Z,10.9
2018-11-10T00:05:38.884Z,12.7
2018-11-10T00:05:58.713Z,11.3
2018-11-10T00:06:18.579Z,10.9
2018-11-10T00:06:38.175Z,12.3
2018-11-10T00:06:57.834Z,11.4
2018-11-10T00:07:17.536Z,11.2
2018-11-10T00:07:37.215Z,12
2018-11-10T00:07:57.304Z,11.6
2018-11-10T00:08:17.445Z,11.1
2018-11-10T00:08:36.982Z,10.6
2018-11-10T00:08:56.586Z,12
2018-11-10T00:09:16.113Z,10.2
2018-11-10T00:09:37.512Z,10.2
2018-11-10T00:09:59.692Z,10.6
2018-11-10T00:10:20.223Z,11.1
2018-11-10T00:10:39.796Z,10.3
2018-11-10T00:10:59.325Z,11.3
2018-11-10T00:11:18.842Z,12.1
2018-11-10T00:11:38.517Z,12.5
2018-11-10T00:11:58.118Z,10.4
2018-11-10T00:12:17.623Z,10
2018-11-10T00:12:38.547Z,10.5
2018-11-10T00:13:00.726Z,11
2018-11-10T00:13:22.064Z,8.7
2018-11-10T00:13:43.501Z,9.8
2018-11-10T00:14:04.066Z,10.2
2018-11-10T00:14:24.253Z,10.9
2018-11-10T00:14:44.162Z,10.6
2018-11-10T00:15:03.987Z,9.7
2018-11-10T00:15:23.643Z,9.1
2018-11-10T00:15:43.240Z,12.3
2018-11-10T00:16:02.820Z,12
2018-11-10T00:16:22.923Z,9.8
2018-11-10T00:16:42.939Z,9.1
2018-11-10T00:17:02.612Z,7.9
2018-11-10T00:17:22.516Z,9.7
2018-11-10T00:17:42.464Z,9
2018-11-10T00:18:02.276Z,8.5
2018-11-10T00:18:22.082Z,7.9
2018-11-10T00:18:42.056Z,7.4
2018-11-10T00:19:02.055Z,8.1
2018-11-10T00:19:22.121Z,8.1
2018-11-10T00:19:42.326Z,7.7
2018-11-10T00:20:02.438Z,9
2018-11-10T00:20:22.306Z,9.3
2018-11-10T00:20:42.415Z,8.8
2018-11-10T00:21:01.988Z,8.6
2018-11-10T00:21:21.993Z,10
2018-11-10T00:21:41.772Z,8.2
2018-11-10T00:22:01.494Z,8.4
2018-11-10T00:22:21.590Z,8
2018-11-10T00:22:41.252Z,7.6
2018-11-10T00:23:01.130Z,8.6
2018-11-10T00:23:21.185Z,8.6
2018-11-10T00:23:41.151Z,8.7
2018-11-10T00:24:01.160Z,7.6
2018-11-10T00:24:20.913Z,8.2
2018-11-10T00:24:40.680Z,7.6
2018-11-10T00:25:01.427Z,8.3
2018-11-10T00:25:21.286Z,7.2
2018-11-10T00:25:41.216Z,7.4
2018-11-10T00:26:00.929Z,7.8
2018-11-10T00:26:20.632Z,9.2
2018-11-10T00:26:40.364Z,7.3
2018-11-10T00:27:00.114Z,7.4
2018-11-10T00:27:19.787Z,9.2
2018-11-10T00:27:39.711Z,9.9
2018-11-10T00:27:59.839Z,8.8
2018-11-10T00:28:19.778Z,7.1
2018-11-10T00:28:39.677Z,6.8
2018-11-10T00:28:59.666Z,8
2018-11-10T00:29:19.712Z,9.2
2018-11-10T00:29:39.660Z,7.5
2018-11-10T00:29:59.403Z,7.2
2018-11-10T00:30:19.344Z,9.2
2018-11-10T00:30:39.861Z,8.2
2018-11-10T00:30:59.705Z,9
2018-11-10T00:31:19.457Z,9.7
2018-11-10T00:31:39.248Z,7.8
2018-11-10T00:31:59.202Z,6.8
2018-11-10T00:32:19.647Z,7.1
2018-11-10T00:32:40.593Z,7.7
2018-11-10T00:33:00.556Z,7.7
2018-11-10T00:33:20.185Z,7.1
2018-11-10T00:33:40.016Z,8.9
2018-11-10T00:34:00.351Z,9
2018-11-10T00:34:20.007Z,9.9
2018-11-10T00:34:39.702Z,10.2
2018-11-10T00:35:00.624Z,7.9
2018-11-10T00:35:22.432Z,9.2
2018-11-10T00:35:45.135Z,8
2018-11-10T00:36:04.666Z,8.1
2018-11-10T00:36:24.257Z,7.5
2018-11-10T00:36:43.847Z,9.7
2018-11-10T00:37:03.468Z,9.4
2018-11-10T00:37:23.072Z,9
2018-11-10T00:37:42.601Z,10.3
2018-11-10T00:38:02.342Z,9.8
2018-11-10T00:38:21.939Z,8.5
2018-11-10T00:38:41.725Z,7.7
2018-11-10T00:39:06.916Z,8.4
2018-11-10T00:39:27.056Z,8.7
2018-11-10T00:39:48.695Z,7.5
2018-11-10T00:40:09.450Z,7.1
2018-11-10T00:40:29.236Z,6.2
2018-11-10T00:40:49.125Z,7.4
2018-11-10T00:41:08.944Z,7.3
2018-11-10T00:41:28.650Z,7.6
2018-11-10T00:41:48.433Z,7.4
2018-11-10T00:42:08.093Z,6.4
2018-11-10T00:42:27.870Z,6.9
2018-11-10T00:42:47.831Z,6.8
2018-11-10T00:43:07.734Z,5.7
2018-11-10T00:43:27.482Z,7
2018-11-10T00:43:47.559Z,7.8
2018-11-10T00:44:07.455Z,8.2
2018-11-10T00:44:28.035Z,8.4
2018-11-10T00:44:47.669Z,7.7
2018-11-10T00:45:07.594Z,6.6
2018-11-10T00:45:27.689Z,7
2018-11-10T00:45:47.155Z,8.3
2018-11-10T00:46:12.681Z,7.1
2018-11-10T00:46:35.457Z,6.9
2018-11-10T00:46:55.424Z,8.6
2018-11-10T00:47:16.126Z,9.2
2018-11-10T00:47:44.651Z,8.3
2018-11-10T00:48:06.191Z,7.9
2018-11-10T00:48:25.741Z,7.4
2018-11-10T00:48:50.125Z,7.9
2018-11-10T00:49:15.422Z,8
2018-11-10T00:49:35.274Z,7.8
2018-11-10T00:49:55.212Z,7.4
2018-11-10T00:50:15.279Z,7.5
2018-11-10T00:50:35.099Z,7.7
2018-11-10T00:50:55.133Z,8.2
2018-11-10T00:51:14.969Z,7.7
2018-11-10T00:51:34.891Z,7.3
2018-11-10T00:51:55.766Z,7.5
2018-11-10T00:52:15.320Z,8.5
2018-11-10T00:52:35.177Z,7.8
2018-11-10T00:52:54.751Z,7.5
2018-11-10T00:53:14.399Z,8.7
2018-11-10T00:53:35.010Z,8.1
2018-11-10T00:53:54.975Z,8
2018-11-10T00:54:14.786Z,6.3
2018-11-10T00:54:34.657Z,7.6
2018-11-10T00:54:54.230Z,7.8
2018-11-10T00:55:14.074Z,8.7
2018-11-10T00:55:33.814Z,7.1
2018-11-10T00:55:53.619Z,7.4
2018-11-10T00:56:13.376Z,6.8
2018-11-10T00:56:32.985Z,7.3
2018-11-10T00:56:52.600Z,8
2018-11-10T00:57:12.361Z,8.9
2018-11-10T00:57:32.293Z,8
2018-11-10T00:57:56.127Z,6.2
2018-11-10T00:58:16.429Z,7.9
2018-11-10T00:58:36.325Z,9
2018-11-10T00:58:56.939Z,7.8
2018-11-10T00:59:16.581Z,7.4
2018-11-10T00:59:36.594Z,7.6
2018-11-10T00:59:58.079Z,7
2018-11-10T01:00:20.788Z,7.5
2018-11-10T01:00:40.452Z,7.8
2018-11-10T01:01:00.014Z,7.7
2018-11-10T01:01:19.743Z,7.5
2018-11-10T01:01:39.306Z,6
2018-11-10T01:01:58.913Z,6.3
2018-11-10T01:02:18.493Z,7.6
2018-11-10T01:02:38.025Z,8.2
2018-11-10T01:02:57.669Z,8.9
2018-11-10T01:03:17.368Z,8.3
2018-11-10T01:03:37.334Z,7.5
2018-11-10T01:03:58.044Z,7.5
2018-11-10T01:04:17.841Z,6.8
2018-11-10T01:04:38.547Z,7.4
2018-11-10T01:05:03.537Z,7.6
2018-11-10T01:05:24.184Z,7.3
2018-11-10T01:05:44.121Z,7.6
2018-11-10T01:06:04.151Z,9.2
2018-11-10T01:06:24.072Z,7.7
2018-11-10T01:06:44.077Z,7.5
2018-11-10T01:07:04.081Z,6.5
2018-11-10T01:07:24.222Z,6.7
2018-11-10T01:07:44.305Z,8.4
2018-11-10T01:08:04.454Z,7.8
2018-11-10T01:08:24.452Z,8.8
2018-11-10T01:08:44.307Z,7.5
2018-11-10T01:09:07.199Z,6.9
2018-11-10T01:09:28.823Z,8.6
2018-11-10T01:09:48.296Z,7.6
2018-11-10T01:10:08.324Z,7.1
2018-11-10T01:12:56.267Z,6.7
2018-11-10T01:13:15.833Z,6.7
2018-11-10T01:20:38.868Z,6.8
2018-11-10T01:20:58.640Z,5.9
2018-11-10T01:21:18.327Z,5.7
2018-11-10T01:21:37.961Z,7.2
2018-11-10T01:21:57.605Z,5.7
2018-11-10T01:22:17.351Z,4.8
2018-11-10T01:22:37.152Z,5.4
2018-11-10T01:22:57.302Z,6.8
2018-11-10T01:23:17.308Z,6.6
2018-11-10T01:23:36.992Z,6
2018-11-10T01:23:56.736Z,6.6
2018-11-10T01:24:16.594Z,7.3
2018-11-10T01:24:40.550Z,7.9
2018-11-10T01:25:03.342Z,6.9
2018-11-10T01:25:25.149Z,5.9
2018-11-10T01:25:44.740Z,8
2018-11-10T01:26:04.377Z,6.1
2018-11-10T01:26:23.989Z,7.4
2018-11-10T01:26:43.590Z,5.9
2018-11-10T01:27:03.142Z,5.6
2018-11-10T01:27:22.811Z,7.3
2018-11-10T01:27:42.410Z,7.5
2018-11-10T01:28:02.329Z,7.5
2018-11-10T01:28:21.922Z,8.7
2018-11-10T01:28:41.662Z,6.6
2018-11-10T01:29:01.442Z,6.8
2018-11-10T01:29:21.320Z,8.1
2018-11-10T01:29:40.884Z,7.9
2018-11-10T01:30:00.954Z,5.9
2018-11-10T01:30:20.837Z,6.2
2018-11-10T01:30:40.681Z,9
2018-11-10T01:31:01.044Z,7.1
2018-11-10T01:31:20.582Z,6.4
2018-11-10T01:31:41.422Z,7.7
2018-11-10T01:32:01.068Z,8.5
2018-11-10T01:32:21.871Z,6.7
2018-11-10T01:32:41.913Z,7.4
2018-11-10T01:33:01.509Z,7.8
2018-11-10T01:33:21.444Z,7.9
2018-11-10T01:33:41.065Z,7.7
2018-11-10T01:34:00.739Z,6.9
2018-11-10T01:34:20.699Z,6.6
2018-11-10T01:34:40.434Z,6.6
2018-11-10T01:35:00.287Z,6.4
2018-11-10T01:35:20.315Z,5.7
2018-11-10T01:35:40.715Z,6.4
2018-11-10T01:36:00.595Z,6.9
2018-11-10T01:36:20.332Z,6.8
2018-11-10T01:36:40.312Z,7.6
2018-11-10T01:37:00.691Z,8.2
2018-11-10T01:37:20.500Z,7
2018-11-10T01:37:40.834Z,6.7
2018-11-10T09:18:52.371Z,8
2018-11-10T09:19:11.864Z,9
2018-11-10T09:19:31.400Z,9.7
2018-11-10T09:19:50.947Z,9.4
2018-11-10T09:20:10.537Z,9.9
2018-11-10T09:20:30.103Z,10.6
2018-11-10T09:20:49.645Z,12.9
2018-11-10T09:21:09.224Z,12.6
2018-11-10T09:21:28.881Z,12
2018-11-10T09:21:48.470Z,12.4
2018-11-10T09:22:07.985Z,13
2018-11-10T09:22:27.685Z,12.9
2018-11-10T09:22:47.263Z,10.5
2018-11-10T09:23:07.947Z,11.1
2018-11-10T09:23:27.509Z,10
2018-11-10T09:23:47.210Z,9
2018-11-10T09:24:06.889Z,9
2018-11-10T09:24:26.398Z,9.8
2018-11-10T09:24:45.973Z,13.7
2018-11-10T09:25:05.510Z,10.8
2018-11-10T09:25:25.230Z,10.3
2018-11-10T09:25:44.834Z,9.9
2018-11-10T09:26:04.449Z,9.1
2018-11-10T09:26:23.957Z,9.7
2018-11-10T09:26:44.587Z,9.1
2018-11-10T09:27:04.657Z,9.3
2018-11-10T09:27:24.400Z,9.8
2018-11-10T09:27:43.936Z,11
2018-11-10T09:28:03.535Z,10.3
2018-11-10T09:28:23.072Z,10.7
2018-11-10T09:28:43.613Z,12.2
2018-11-10T09:29:03.236Z,11.7
2018-11-10T09:29:22.792Z,9.8
2018-11-10T09:29:42.326Z,12
2018-11-10T09:30:01.955Z,10.3
2018-11-10T09:30:22.502Z,9.5
2018-11-10T09:30:42.069Z,11.9
2018-11-10T09:31:01.673Z,12.1
2018-11-10T09:31:21.278Z,9.9
2018-11-10T09:31:40.856Z,8.9
2018-11-10T09:32:00.403Z,11.3
2018-11-10T09:32:19.949Z,10.8
2018-11-10T09:32:39.482Z,10
2018-11-10T09:32:59.062Z,9.4
2018-11-10T09:33:18.575Z,8.6
2018-11-10T09:33:38.206Z,8.9
2018-11-10T09:33:57.857Z,7.8
2018-11-10T09:34:17.548Z,10.2
2018-11-10T09:34:37.090Z,12.6
2018-11-10T09:34:56.662Z,11.4
2018-11-10T09:35:16.382Z,9.3
2018-11-10T09:35:35.939Z,10
2018-11-10T09:35:55.444Z,10.3
2018-11-10T09:36:15.064Z,11.8
2018-11-10T09:36:34.615Z,12.4
2018-11-10T09:36:54.131Z,10.6
2018-11-10T09:37:13.681Z,11.7
2018-11-10T09:37:33.521Z,11.5
2018-11-10T09:37:53.087Z,11.1
2018-11-10T09:38:12.617Z,9.7
2018-11-10T09:38:32.138Z,10.2
2018-11-10T09:38:51.679Z,11.2
2018-11-10T09:39:11.272Z,10.8
2018-11-10T09:39:30.815Z,9.6
2018-11-10T09:39:50.341Z,8.8
2018-11-10T09:40:09.939Z,8.6
2018-11-10T09:40:29.458Z,9
2018-11-10T09:40:49.165Z,9.2
2018-11-10T09:41:08.619Z,9.8
2018-11-10T09:41:28.167Z,9.3
2018-11-10T09:41:47.763Z,9.2
2018-11-10T09:42:08.548Z,9.2
2018-11-10T09:42:29.165Z,10.2
2018-11-10T09:42:48.632Z,9.3
2018-11-10T09:43:08.080Z,11
2018-11-10T09:43:27.630Z,10.3
2018-11-10T09:43:47.180Z,9.4
2018-11-10T09:44:06.753Z,11.3
2018-11-10T09:44:27.709Z,12.2
2018-11-10T09:44:50.055Z,10.4
2018-11-10T09:45:09.761Z,11.9
2018-11-10T09:45:29.531Z,10.3
2018-11-10T09:45:50.296Z,11.2
2018-11-10T09:46:10.462Z,12.6
2018-11-10T09:46:30.054Z,10.2
2018-11-10T09:46:49.633Z,10.1
2018-11-10T09:47:09.253Z,10.7
2018-11-10T09:47:28.805Z,11.6
2018-11-10T09:47:49.321Z,10.9
2018-11-10T09:48:09.826Z,10.5
2018-11-10T09:48:30.402Z,10
2018-11-10T09:48:50.055Z,10.7
2018-11-10T09:49:12.936Z,9.1
2018-11-10T09:49:33.056Z,10.5
